Danforth, South Dakota
Current Conditions -  °F | °C
As of 1:55 AM on Wednesday 26 Nov 2014 (Local Time) from KHON Reporting Station
Overcast Overcast  
Wind Chill: -4°   Ceiling: 700
Heat Index:   Visibility: 7mi
Dew Point: -1°   Wind: 8mph
Humidity: 92%   Direction: 340°NNW
Pressure: 29.87"   Gusts: NA
Location:  44.3714°N, 98.681°W
Report Text: KHON 260755Z AUTO 34007KT 7SM OVC007 00/M01 A2987 RMK AO2 SNB20E38 SLP127 P0000 T00001011
Loading
Personal Weather Stations






























Interactive Weather Map New forecast layout! Learn more

10-Day Weather Forecast

Advertisements
Track Severe Weather on mobile